Manassas, VA (20111)

6:01 PM EST on March 03, 2015 (GMT -0500)
Beckford Grant | Change Station
CLOSE
Current Station
Personal Weather Station
Location: Manassas, VA
Elevation: 299 ft
Nearby Weather Stations
Active Advisory: Winter Storm Watch Active Notice: Public Information Statement

Elev 299 ft 38.75 °N, 77.46 °W | Updated 29 seconds ago

Overcast
Overcast
32.6 °F
Feels Like 33 °F
N
1.0
Wind Variable Wind from South
Gusts 1.0 mph

Today
High -- | Low -- °F
--% Chance of Precip.
Yesterday
High -- | Low -- °F
Precip. -- in
6:39 AM 6:04 PM
Waxing Gibbous, 97% visible
Pressure 30.09 in
Visibility 10.0 miles
Clouds Overcast 2400 ft
Windchill 33 °F
Dew Point 26 °F
Humidity 75%
Rainfall 0.00 in
Snow Depth Not available.
UV 0 out of 12
Pollen .90 out of 12
Air Quality Not available.
Flu Activity Not available.
METAR KHEF 032245Z 18007KT 10SM OVC024 01/M04 A3009

More Conditions Fewer Conditions

Pressure 30.09 in
Visibility 10.0 miles
Clouds Overcast 2400 ft
Windchill 33 °F
Dew Point 26 °F
Humidity 75%
Rainfall 0.00 in
Snow Depth Not available.
UV 0 out of 12
Pollen .90 out of 12
Air Quality Not available.
Flu Activity Not available.
METAR KHEF 032245Z 18007KT 10SM OVC024 01/M04 A3009

More Conditions Fewer Conditions

10-Day Weather Forecast

Almanac

Astronomy

Mar. 03, 2015 Rise Set
Actual Time
Civil Twilight
Nautical Twilight
Astronomical Twilight
Moon
Length of Visible Light
Length of Day
Tomorrow will be .
, % of the Moon is Illuminated

Today's Extremes

State Highs State Lows

Community

WunderPhotos

Upload Photos

1,802,299 photos uploaded!

WunderBlogs® & News

Nearby

Air Quality

  Air Quality AQ Index Pollutant
Not available.

Snow Depth

Station Depth Elevation

Earthquake Activity

City Distance Mag. Time & Date
Minimum magnitude displayed is 2.5.

Coastal Water Temperatures

Place Temperature

Nearby Weather Stations

Winter Storm Watch
Statement as of 2:50 PM EST on March 03, 2015

... Winter Storm Watch in effect from Wednesday evening through
Thursday evening...

The National Weather Service in Baltimore MD/Washington has
issued a Winter Storm Watch... which is in effect from Wednesday
evening through Thursday evening.

* Locations... Potomac Highlands and the northern Shenandoah
Valley.

* Hazard types... snow... heavy at times.

* Timing... rain changing to snow Wednesday evening. Snow may be
heavy at times Wednesday night into Thursday morning.

* Impacts... roads will be snow covered with visibility reduced to
near one-quarter mile at times. Traveling potentially will be
dangerous.

* Winds... northwest around 10 mph.

* Temperatures... 25 to 30 degrees.

Precautionary/preparedness actions...

A Winter Storm Watch means there is a potential for significant
snow... sleet... or ice accumulations that may impact travel.
Continue to monitor the latest forecasts.